Nearby METAR Reports

 

KMDQ - Huntsville/Madis, Alabama, USA
Distance from station: S 20mi, 32km
Updated: Tue, 23-Oct-2018 6:30pm CDT
Clear
Clear
 Wind from calm
Wind: Calm
Temperature: 54°F , 12°C
Dew Point: 50°F , 10°C
Humidity: 88%
Barometer: 30.19 inHg , 1022.4 hPa
Clouds: Clear
Visibility: 10 miles , 16 km
2018/10/23 23:30 KMDQ 232330Z AUTO 00000KT 10SM CLR 12/10 A3019 RMK A02 T01220098
KTHA - Tullahoma, Tennessee, USA
Distance from station: NE 24mi, 39km
Updated: Tue, 23-Oct-2018 6:35pm CDT
Clear
Clear
 Wind from calm
Wind: Calm
Temperature: 52°F , 11°C
Dew Point: 48°F , 9°C
Humidity: 88%
Barometer: 30.20 inHg , 1022.7 hPa
Clouds: Clear
Visibility: 10 miles , 16 km
2018/10/23 23:35 KTHA 232335Z AUTO 00000KT 10SM CLR 11/09 A3020 RMK A01
 
KBGF - Winchester, Tennessee, USA
Distance from station: E 29mi, 46km
Updated: Tue, 23-Oct-2018 6:35pm CDT
Clear
Clear
 Wind from calm
Wind: Calm
Temperature: 55°F , 13°C
Dew Point: 46°F , 8°C
Humidity: 72%
Barometer: 30.19 inHg , 1022.4 hPa
Clouds: Clear
Visibility: 10 miles , 16 km
2018/10/23 23:35 KBGF 232335Z AUTO 00000KT 10SM CLR 13/08 A3019 RMK A01
KHUA - Redstone Arsenal, Alabama, USA
Distance from station: S 33mi, 53km
Updated: Tue, 23-Oct-2018 5:58pm CDT
Clear
Clear
 Wind from calm
Wind: Calm
Temperature: 63°F , 17°C
Dew Point: 43°F , 6°C
Humidity: 49%
Barometer: 30.18 inHg , 1022 hPa
Clouds: Clear
Visibility: 10 miles , 16 km
2018/10/23 22:58 KHUA 232258Z AUTO 00000KT 10SM CLR 17/06 A3018 RMK AO2 SLP221 T01650057
 
KHSV - Huntsville, Alabama, USA
Distance from station: SSW 37mi, 59km
Updated: Tue, 23-Oct-2018 5:53pm CDT
Mostly cloudy
Mostly cloudy
 Wind from calm
Wind: Calm
Temperature: 64°F , 18°C
Dew Point: 45°F , 7°C
Humidity: 49%
Barometer: 30.19 inHg , 1022.4 hPa
Clouds: Mostly cloudy
Visibility: 10 miles , 16 km
Cloud details: Mostly cloudy 25000 ft
2018/10/23 22:53 KHSV 232253Z 00000KT 10SM BKN250 18/07 A3019 RMK AO2 SLP222 T01830067
KDCU - Decatur, Alabama, USA
Distance from station: SSW 41mi, 66km
Updated: Tue, 23-Oct-2018 5:53pm CDT
Clear
Clear
 Wind from calm
Wind: Calm
Temperature: 59°F , 15°C
Dew Point: 50°F , 10°C
Humidity: 72%
Barometer: 30.20 inHg , 1022.7 hPa
Clouds: Clear
Visibility: 10 miles , 16 km
2018/10/23 22:53 KDCU 232253Z AUTO 00000KT 10SM CLR 15/10 A3020 RMK AO2 SLP225 T01500100
 
KMRC - Columbia, Tennessee, USA
Distance from station: NW 44mi, 71km
Updated: Tue, 23-Oct-2018 6:35pm CDT
Clear
Clear
 Wind from calm
Wind: Calm
Temperature: 57°F , 14°C
Dew Point: 46°F , 8°C
Humidity: 67%
Barometer: 30.19 inHg , 1022.4 hPa
Clouds: Clear
Visibility: 10 miles , 16 km
2018/10/23 23:35 KMRC 232335Z AUTO 00000KT 10SM CLR 14/08 A3019 RMK A01
K4A6 - Scottsboro, Alabama, USA
Distance from station: SE 46mi, 74km
Updated: Tue, 23-Oct-2018 6:35pm CDT
Clear
Clear
 Wind from calm
Wind: Calm
Temperature: 54°F , 12°C
Dew Point: 48°F , 9°C
Humidity: 82%
Barometer: 30.19 inHg , 1022.4 hPa
Clouds: Clear
Visibility: 10 miles , 16 km
2018/10/23 23:35 K4A6 232335Z AUTO 00000KT 10SM CLR 12/09 A3019 RMK AO2
 
K9A4 - Courtland, Alabama, USA
Distance from station: SW 55mi, 89km
Updated: Thu, 22-Aug-2013 2:15pm CDT
NOT Current
Clear
Clear
 Wind from NNE
Wind: NNE 6 mph , 9 km/h
Temperature: 84°F , 29°C
Heat Index: 89°F , 32°C
Dew Point: 72°F , 22°C
Humidity: 66%
Barometer: 30.10 inHg , 1019.3 hPa
Clouds: Clear
Visibility: 10 miles , 16 km
2013/08/22 19:15 K9A4 221915Z AUTO 03005KT 10SM CLR 29/22 A3010 RMK AO2
KMQY - Smyrna, Tennessee, USA
Distance from station: N 60mi, 96km
Updated: Tue, 23-Oct-2018 6:07pm CDT
Clear
Clear
 Wind from calm
Wind: Calm
Temperature: 61°F , 16°C
Dew Point: 48°F , 9°C
Humidity: 63%
Barometer: 30.21 inHg , 1023 hPa
Clouds: Clear
Visibility: 10 miles , 16 km
2018/10/23 23:07 KMQY 232307Z 00000KT 10SM CLR 16/09 A3021 RMK AO2
 
K3A1 - Cullman/Folsom F, Alabama, USA
Distance from station: SSW 63mi, 102km
Updated: Mon, 01-Jul-2013 4:35pm CDT
NOT Current
Partly cloudy
Partly cloudy
 Wind from WNW
Wind: WNW 7 mph , 11 km/h
Temperature: 82°F , 28°C
Heat Index: 83°F , 28°C
Dew Point: 63°F , 17°C
Humidity: 51%
Barometer: 29.87 inHg , 1011.5 hPa
Clouds: Partly cloudy
Visibility: 10 miles , 16 km
Cloud details: Partly cloudy 4600 ft
Partly cloudy 6000 ft
Partly cloudy 7000 ft
2013/07/01 21:35 K3A1 012135Z AUTO 30006KT 10SM SCT046 SCT060 SCT070 28/17 A2987 RMK AO2 T02780172
KMSL - Muscle Shoal, Alabama, USA
Distance from station: WSW 65mi, 104km
Updated: Tue, 23-Oct-2018 5:53pm CDT
Clear
Clear
 Wind from calm
Wind: Calm
Temperature: 64°F , 18°C
Dew Point: 48°F , 9°C
Humidity: 56%
Barometer: 30.20 inHg , 1022.7 hPa
Clouds: Clear
Visibility: 10 miles , 16 km
2018/10/23 22:53 KMSL 232253Z AUTO 00000KT 10SM CLR 18/09 A3020 RMK AO2 SLP226 T01780089
 
K8A0 - Albertville Muni, Alabama, USA
Distance from station: SSE 66mi, 106km
Updated: Tue, 23-Oct-2018 6:35pm CDT
Clear
Clear
 Wind from N
Wind: N 3 mph , 6 km/h
Temperature: 55°F , 13°C
Dew Point: 50°F , 10°C
Humidity: 82%
Barometer: 30.18 inHg , 1022 hPa
Clouds: Clear
Visibility: 10 miles , 16 km
2018/10/23 23:35 K8A0 232335Z AUTO 01003KT 10SM CLR 13/10 A3018 RMK AO2
KBNA - Nashville, Tennessee, USA
Distance from station: N 67mi, 108km
Updated: Tue, 23-Oct-2018 5:53pm CDT
Few Clouds
Few Clouds
 Wind from NNW
Wind: NNW 6 mph , 9 km/h
Temperature: 66°F , 19°C
Dew Point: 43°F , 6°C
Humidity: 43%
Barometer: 30.20 inHg , 1022.7 hPa
Clouds: Few Clouds
Visibility: 10 miles , 16 km
Cloud details: Few Clouds 25000 ft
2018/10/23 22:53 KBNA 232253Z 34005KT 10SM FEW250 19/06 A3020 RMK AO2 SLP225 T01940061
 
K4A9 - Ft Payne/Isbell, Alabama, USA
Distance from station: SE 68mi, 109km
Updated: Mon, 22-Oct-2018 12:35pm CDT
NOT Current
Clear
Clear
 Wind from calm
Wind: Calm
Temperature: 59°F , 15°C
Dew Point: 32°F , 0°C
Humidity: 36%
Barometer: 30.28 inHg , 1025.4 hPa
Clouds: Clear
Visibility: 10 miles , 16 km
2018/10/22 17:35 K4A9 221735Z AUTO 00000KT 10SM CLR 15/00 A3028 RMK AO2